Readstown, Wisconsin
Current Conditions -  °F | °C
As of 5:14 AM on Thursday 18 Dec 2014 (Local Time) from KY51 Reporting Station
Overcast Overcast  
Wind Chill: 17°   Ceiling: 1200
Heat Index: 17°   Visibility: 10mi
Dew Point: 16°   Wind: 0mph
Humidity: 94%   Direction: NA
Pressure: 30.23"   Gusts: NA
Location:  43.45°N, 90.76°W
Report Text: KY51 181114Z AUTO 00000KT 10SM OVC012 M08/M09 A3023 RMK AO1 T10821090
Loading
Personal Weather Stations






























Interactive Weather Map New forecast layout! Learn more

10-Day Weather Forecast

Advertisements
Track Severe Weather on mobile